Time;durP1;ratioP1;P1;durP2;ratioP2;P2;SDS_P1;SDS_P2;PMS_P1;PMS_P2;Temp;Humidity;BMP_temperature;BMP_pressure;BME280_temperature;BME280_humidity;BME280_pressure;Samples;Min_cycle;Max_cycle;Signal;HPM_P1;HPM_P2
2023/06/12 00:00:53;;;;;;;4.15;2.38;;;21.90;59.70;;;;;;5031101;28;20014;-72
2023/06/12 00:03:20;;;;;;;7.50;3.13;;;21.80;59.70;;;;;;5030361;28;20482;-72
2023/06/12 00:05:46;;;;;;;3.67;2.17;;;21.80;59.90;;;;;;5030643;28;20014;-72
2023/06/12 00:08:13;;;;;;;4.60;3.00;;;21.70;60.00;;;;;;5020415;28;20026;-72
2023/06/12 00:10:42;;;;;;;4.10;2.30;;;21.60;60.00;;;;;;5014516;28;20018;-73
2023/06/12 00:13:09;;;;;;;4.57;2.20;;;21.60;60.20;;;;;;5030945;28;20104;-72
2023/06/12 00:15:35;;;;;;;3.88;2.63;;;21.60;60.40;;;;;;5030579;28;20119;-72
2023/06/12 00:18:01;;;;;;;4.97;2.47;;;21.50;60.60;;;;;;5022435;28;20041;-72
2023/06/12 00:20:27;;;;;;;3.88;2.30;;;21.40;60.70;;;;;;5027643;28;20450;-72
2023/06/12 00:22:53;;;;;;;5.63;2.63;;;21.40;61.50;;;;;;5030818;28;20076;-72
2023/06/12 00:25:18;;;;;;;4.75;3.25;;;21.40;61.10;;;;;;5030499;28;20121;-72
2023/06/12 00:27:44;;;;;;;3.70;2.65;;;21.30;61.30;;;;;;5030848;28;20502;-72
2023/06/12 00:30:10;;;;;;;3.97;2.58;;;21.30;61.50;;;;;;5030955;28;20033;-72
2023/06/12 00:32:36;;;;;;;4.93;3.08;;;21.20;61.70;;;;;;5027569;28;20389;-72
2023/06/12 00:35:01;;;;;;;4.93;2.45;;;21.10;62.00;;;;;;5030787;28;20033;-72
2023/06/12 00:37:27;;;;;;;9.38;3.22;;;21.10;62.40;;;;;;5033803;28;20401;-73
2023/06/12 00:39:53;;;;;;;4.45;2.78;;;21.00;62.70;;;;;;5032867;28;20049;-72
2023/06/12 00:42:20;;;;;;;5.38;2.95;;;21.00;63.10;;;;;;5033087;28;20079;-72
2023/06/12 00:44:46;;;;;;;4.57;2.70;;;20.80;63.30;;;;;;5034247;28;20036;-72
2023/06/12 00:47:14;;;;;;;4.65;2.88;;;20.70;63.60;;;;;;5033639;28;20021;-73
2023/06/12 00:49:40;;;;;;;5.60;2.90;;;20.60;63.90;;;;;;5034051;28;20116;-72
2023/06/12 00:52:11;;;;;;;4.63;2.85;;;20.60;64.20;;;;;;5034291;28;20025;-72
2023/06/12 00:54:38;;;;;;;4.75;2.28;;;20.50;64.60;;;;;;5034263;28;20080;-72
2023/06/12 00:57:07;;;;;;;5.57;2.63;;;20.40;65.10;;;;;;5028712;28;20026;-72
2023/06/12 00:59:33;;;;;;;4.95;2.47;;;20.30;65.50;;;;;;5033636;28;20030;-72
2023/06/12 01:01:58;;;;;;;4.00;2.90;;;20.20;66.00;;;;;;5032446;28;20557;-72
2023/06/12 01:04:24;;;;;;;5.88;2.97;;;20.20;66.60;;;;;;5033284;28;20105;-72
2023/06/12 01:07:10;;;;;;;6.03;2.75;;;20.00;67.10;;;;;;5011340;28;20381;-72
2023/06/12 01:09:55;;;;;;;5.15;2.60;;;19.90;67.60;;;;;;5033900;28;20026;-72
2023/06/12 01:12:22;;;;;;;6.03;2.95;;;19.80;68.00;;;;;;5033259;28;20021;-72
2023/06/12 01:14:48;;;;;;;3.90;2.80;;;19.60;68.30;;;;;;5033044;28;20025;-72
2023/06/12 01:17:13;;;;;;;5.00;2.65;;;19.50;68.70;;;;;;5027140;28;20452;-73
2023/06/12 01:19:41;;;;;;;5.50;2.78;;;19.50;68.90;;;;;;5033561;28;20045;-72
2023/06/12 01:22:10;;;;;;;7.97;2.75;;;19.40;69.30;;;;;;5032442;28;20384;-72
2023/06/12 01:25:22;;;;;;;5.25;2.63;;;19.20;69.70;;;;;;5033547;28;20470;-72
2023/06/12 01:28:00;;;;;;;5.23;2.90;;;19.20;70.10;;;;;;5032340;28;20040;-72
2023/06/12 01:30:43;;;;;;;5.15;2.80;;;19.10;70.30;;;;;;5033204;28;20359;-72
2023/06/12 01:33:14;;;;;;;4.20;2.65;;;19.10;70.70;;;;;;5033461;28;20044;-72
2023/06/12 01:35:43;;;;;;;4.55;3.15;;;19.00;70.90;;;;;;5033269;28;20029;-72
2023/06/12 01:38:17;;;;;;;3.90;2.65;;;18.90;71.30;;;;;;5031361;28;20021;-72
2023/06/12 01:40:45;;;;;;;5.38;2.80;;;18.90;71.60;;;;;;5033162;28;20021;-72
2023/06/12 01:43:11;;;;;;;7.53;3.30;;;18.80;71.50;;;;;;5032973;28;20505;-74
2023/06/12 01:45:37;;;;;;;5.10;2.90;;;18.80;71.20;;;;;;5033051;28;20036;-72
2023/06/12 01:48:04;;;;;;;6.38;3.05;;;18.90;71.70;;;;;;5031850;28;20397;-72
2023/06/12 01:50:30;;;;;;;5.90;3.88;;;18.80;71.70;;;;;;5032615;28;20413;-72
2023/06/12 01:52:55;;;;;;;3.95;3.35;;;18.80;72.10;;;;;;5032083;28;20025;-72
2023/06/12 01:55:21;;;;;;;5.32;3.50;;;18.70;72.20;;;;;;5032399;28;20029;-72
2023/06/12 01:57:48;;;;;;;7.95;3.53;;;18.70;72.60;;;;;;5033023;28;20025;-72
2023/06/12 02:00:14;;;;;;;4.32;2.60;;;18.60;72.80;;;;;;5032584;28;20029;-72
2023/06/12 02:02:40;;;;;;;5.95;4.10;;;18.50;73.10;;;;;;5032564;28;20101;-73
2023/06/12 02:05:06;;;;;;;4.72;2.97;;;18.50;73.20;;;;;;5032463;28;20021;-72
2023/06/12 02:07:32;;;;;;;4.25;2.97;;;18.40;73.60;;;;;;5032332;28;20052;-72
2023/06/12 02:09:58;;;;;;;3.83;3.03;;;18.40;73.80;;;;;;5032619;28;20121;-72
2023/06/12 02:12:23;;;;;;;6.63;2.95;;;18.30;74.10;;;;;;5015495;28;20056;-72
2023/06/12 02:14:50;;;;;;;11.05;3.58;;;18.30;74.40;;;;;;5020699;28;20114;-72
2023/06/12 02:17:18;;;;;;;5.43;3.08;;;18.20;74.70;;;;;;5032174;28;20056;-72
2023/06/12 02:19:45;;;;;;;4.97;3.22;;;18.10;75.10;;;;;;5032324;28;20050;-72
2023/06/12 02:22:11;;;;;;;6.80;2.85;;;18.00;75.30;;;;;;5032187;28;20028;-73
2023/06/12 02:24:37;;;;;;;5.82;3.53;;;18.00;75.70;;;;;;5032254;28;20414;-72
2023/06/12 02:27:03;;;;;;;5.38;2.88;;;17.90;75.80;;;;;;5028042;28;20025;-72
2023/06/12 02:29:28;;;;;;;7.63;3.35;;;17.90;76.30;;;;;;5030720;28;20401;-72
2023/06/12 02:31:54;;;;;;;9.63;3.17;;;17.80;76.60;;;;;;5031875;28;20020;-72
2023/06/12 02:34:19;;;;;;;3.78;2.78;;;17.80;76.90;;;;;;5031966;28;20034;-72
2023/06/12 02:36:46;;;;;;;7.93;3.08;;;17.70;77.10;;;;;;5032178;28;20028;-72
2023/06/12 02:39:13;;;;;;;4.57;3.55;;;17.70;77.30;;;;;;5031924;28;20057;-72
2023/06/12 02:41:47;;;;;;;7.10;3.85;;;17.60;77.20;;;;;;5029112;28;20101;-72
2023/06/12 02:44:12;;;;;;;6.50;3.42;;;17.60;77.40;;;;;;5021133;28;20030;-72
2023/06/12 02:46:58;;;;;;;4.80;3.47;;;17.50;77.90;;;;;;5032029;28;20030;-72
2023/06/12 02:49:29;;;;;;;5.55;3.47;;;17.50;78.30;;;;;;5031552;28;20076;-72
2023/06/12 02:51:55;;;;;;;7.80;3.00;;;17.50;79.00;;;;;;5031908;28;20596;-72
2023/06/12 02:54:22;;;;;;;6.43;3.42;;;17.40;79.40;;;;;;5031486;28;20057;-72
2023/06/12 02:56:48;;;;;;;7.05;3.60;;;17.30;79.60;;;;;;5023045;28;20023;-72
2023/06/12 02:59:15;;;;;;;5.20;3.38;;;17.30;80.00;;;;;;5030975;28;20025;-72
2023/06/12 03:01:43;;;;;;;6.10;3.75;;;17.30;80.50;;;;;;5031645;28;20056;-72
2023/06/12 03:04:15;;;;;;;5.45;3.58;;;17.30;81.00;;;;;;5031576;28;20032;-72
2023/06/12 03:06:43;;;;;;;9.00;3.92;;;17.30;81.70;;;;;;5031652;28;20486;-72
2023/06/12 03:09:09;;;;;;;5.55;3.95;;;17.20;81.80;;;;;;5031612;28;20049;-72
2023/06/12 03:11:38;;;;;;;5.28;3.70;;;17.30;82.30;;;;;;5027922;28;20025;-72
2023/06/12 03:14:05;;;;;;;5.25;3.67;;;17.30;82.70;;;;;;5031502;28;20109;-72
2023/06/12 03:16:31;;;;;;;6.10;3.33;;;17.40;82.80;;;;;;5031565;28;20029;-72
2023/06/12 03:18:57;;;;;;;8.30;4.72;;;17.40;82.90;;;;;;5031443;28;20635;-72
2023/06/12 03:21:23;;;;;;;7.38;3.85;;;17.40;83.30;;;;;;5031174;28;20112;-73
2023/06/12 03:23:48;;;;;;;6.97;3.92;;;17.50;83.80;;;;;;5031735;28;20033;-72
2023/06/12 03:26:14;;;;;;;3.90;3.50;;;17.50;84.50;;;;;;5030124;28;20071;-72
2023/06/12 03:28:40;;;;;;;5.05;3.53;;;17.50;85.20;;;;;;5031346;28;20037;-72
2023/06/12 03:31:05;;;;;;;6.70;4.18;;;17.50;85.80;;;;;;5031459;28;20021;-72
2023/06/12 03:33:31;;;;;;;10.77;4.05;;;17.50;86.70;;;;;;5030933;28;20049;-72
2023/06/12 03:35:57;;;;;;;5.45;4.10;;;17.50;87.20;;;;;;5029824;28;20021;-72
2023/06/12 03:38:22;;;;;;;5.88;3.60;;;17.50;87.90;;;;;;5025696;28;20037;-72
2023/06/12 03:40:48;;;;;;;6.43;3.28;;;17.50;88.60;;;;;;5010118;28;20026;-72
2023/06/12 03:43:14;;;;;;;6.88;3.47;;;17.50;89.20;;;;;;5021818;28;20466;-72
2023/06/12 03:45:39;;;;;;;7.00;3.80;;;17.40;89.90;;;;;;5013350;28;20044;-72
2023/06/12 03:48:05;;;;;;;8.70;4.05;;;17.40;90.10;;;;;;5031132;28;20068;-72
2023/06/12 03:50:30;;;;;;;5.35;3.78;;;17.40;90.30;;;;;;5030659;28;20025;-72
2023/06/12 03:52:56;;;;;;;9.20;3.80;;;17.40;90.40;;;;;;5027501;28;20641;-72
2023/06/12 03:55:23;;;;;;;4.65;3.42;;;17.40;90.50;;;;;;5010729;28;20061;-72
2023/06/12 03:57:49;;;;;;;6.68;3.88;;;17.40;90.60;;;;;;5011272;28;20482;-72
2023/06/12 04:00:15;;;;;;;4.07;3.45;;;17.40;90.60;;;;;;5028886;28;20120;-73
2023/06/12 04:02:41;;;;;;;6.93;4.00;;;17.40;90.80;;;;;;5030965;28;20022;-72
2023/06/12 04:05:08;;;;;;;8.82;4.05;;;17.40;90.80;;;;;;5031090;28;20045;-72
2023/06/12 04:07:37;;;;;;;5.88;3.38;;;17.40;90.70;;;;;;5029608;28;20063;-72
2023/06/12 04:10:04;;;;;;;4.80;2.72;;;17.40;90.70;;;;;;5010301;28;20524;-72
2023/06/12 04:12:30;;;;;;;6.70;3.83;;;17.50;90.70;;;;;;5034105;28;20470;-72
2023/06/12 04:14:56;;;;;;;6.85;3.97;;;17.50;90.70;;;;;;5034618;28;20482;-72
2023/06/12 04:17:22;;;;;;;5.95;3.58;;;17.50;90.60;;;;;;5033134;28;20052;-72
2023/06/12 04:19:49;;;;;;;7.38;3.60;;;17.50;90.50;;;;;;5034425;28;20060;-72
2023/06/12 04:22:16;;;;;;;6.70;3.22;;;17.60;90.50;;;;;;5032474;28;20022;-72
2023/06/12 04:24:42;;;;;;;5.15;2.65;;;17.60;90.40;;;;;;5028555;28;20026;-72
2023/06/12 04:27:11;;;;;;;5.72;3.45;;;17.70;90.40;;;;;;5034385;28;20079;-72
2023/06/12 04:29:37;;;;;;;5.65;3.40;;;17.70;90.20;;;;;;5034573;28;20041;-72
2023/06/12 04:32:07;;;;;;;5.15;2.97;;;17.80;90.20;;;;;;5034411;28;20381;-72
2023/06/12 04:34:43;;;;;;;8.25;3.75;;;17.80;90.10;;;;;;5034229;28;20108;-72
2023/06/12 04:37:11;;;;;;;6.80;3.58;;;17.90;90.00;;;;;;5031151;28;20065;-72
2023/06/12 04:39:39;;;;;;;7.13;3.88;;;17.90;89.80;;;;;;5021960;28;20505;-72
2023/06/12 04:42:05;;;;;;;5.38;3.90;;;17.90;89.80;;;;;;5034105;28;20029;-72
2023/06/12 04:44:34;;;;;;;6.07;3.90;;;18.00;89.60;;;;;;5034085;28;20134;-72
2023/06/12 04:47:11;;;;;;;7.18;4.32;;;18.10;89.60;;;;;;5034080;28;20019;-72
2023/06/12 04:49:41;;;;;;;8.02;4.35;;;18.10;89.60;;;;;;5033915;28;20125;-72
2023/06/12 04:52:08;;;;;;;5.75;4.05;;;18.20;89.70;;;;;;5016052;28;20386;-72
2023/06/12 04:54:38;;;;;;;6.68;4.22;;;18.40;90.10;;;;;;5033515;28;20084;-72
2023/06/12 04:57:12;;;;;;;9.15;4.00;;;18.70;90.10;;;;;;5034072;28;20022;-72
2023/06/12 04:59:42;;;;;;;6.43;4.13;;;19.10;90.00;;;;;;5033759;28;20025;-72
2023/06/12 05:02:10;;;;;;;6.47;4.53;;;19.40;88.90;;;;;;5034168;28;20021;-72
2023/06/12 05:04:37;;;;;;;6.20;4.05;;;19.80;87.80;;;;;;5026426;28;20076;-72
2023/06/12 05:07:04;;;;;;;7.90;4.20;;;20.10;86.00;;;;;;5024187;28;20449;-72
2023/06/12 05:09:30;;;;;;;10.27;3.67;;;20.50;84.50;;;;;;5033213;28;20485;-72
2023/06/12 05:11:56;;;;;;;10.20;4.63;;;20.80;83.60;;;;;;5033694;28;20032;-72
2023/06/12 05:14:22;;;;;;;7.47;4.13;;;21.10;82.30;;;;;;5033220;28;20587;-72
2023/06/12 05:16:48;;;;;;;11.13;4.65;;;21.40;81.20;;;;;;5033644;28;20072;-72
2023/06/12 05:19:14;;;;;;;6.47;4.00;;;21.70;80.20;;;;;;5033140;28;20053;-72
2023/06/12 05:21:41;;;;;;;10.10;4.43;;;21.90;78.80;;;;;;5031658;28;20105;-72
2023/06/12 05:24:07;;;;;;;9.27;4.60;;;22.20;78.00;;;;;;5033773;28;20028;-72
2023/06/12 05:26:33;;;;;;;9.15;5.03;;;22.50;77.00;;;;;;5033031;28;20017;-72
2023/06/12 05:28:58;;;;;;;8.07;4.55;;;22.80;75.70;;;;;;5031600;28;20044;-72
2023/06/12 05:31:25;;;;;;;11.85;3.80;;;22.90;74.30;;;;;;5032945;28;20030;-72
2023/06/12 05:33:51;;;;;;;6.60;4.53;;;23.00;73.80;;;;;;5032628;28;20114;-72
2023/06/12 05:36:17;;;;;;;4.93;3.58;;;23.00;73.40;;;;;;5015335;28;20524;-73
2023/06/12 05:38:46;;;;;;;6.20;3.42;;;23.00;72.70;;;;;;5012299;28;20014;-72
2023/06/12 05:41:12;;;;;;;9.32;3.72;;;23.00;72.50;;;;;;5022947;28;20032;-72
2023/06/12 05:43:39;;;;;;;8.40;4.03;;;23.00;72.30;;;;;;5033248;28;20025;-73
2023/06/12 05:46:05;;;;;;;9.90;4.20;;;23.00;71.70;;;;;;5032838;28;20095;-72
2023/06/12 05:48:30;;;;;;;6.65;4.70;;;23.00;71.30;;;;;;5032164;28;20580;-72
2023/06/12 05:50:56;;;;;;;5.93;4.40;;;23.00;71.70;;;;;;5019832;28;20067;-72
2023/06/12 05:53:21;;;;;;;7.18;4.47;;;23.00;71.50;;;;;;5033003;28;20026;-72
2023/06/12 05:55:47;;;;;;;6.05;3.60;;;23.00;70.80;;;;;;5033038;28;20388;-72
2023/06/12 05:58:13;;;;;;;7.60;4.32;;;23.00;70.70;;;;;;5032404;28;20071;-72
2023/06/12 06:00:40;;;;;;;9.43;4.07;;;22.90;70.70;;;;;;5032824;28;20481;-72
2023/06/12 06:03:06;;;;;;;8.07;4.38;;;23.00;71.00;;;;;;5032678;28;20018;-72
2023/06/12 06:05:32;;;;;;;7.38;3.70;;;23.00;70.10;;;;;;5017572;28;20018;-72
2023/06/12 06:07:58;;;;;;;5.88;3.40;;;23.00;70.10;;;;;;5031120;28;20040;-72
2023/06/12 06:10:24;;;;;;;9.48;3.83;;;23.00;69.60;;;;;;5030328;28;20108;-72
2023/06/12 06:12:52;;;;;;;8.18;3.88;;;23.10;69.10;;;;;;5032723;28;20374;-72
2023/06/12 06:15:18;;;;;;;6.00;3.80;;;23.10;69.20;;;;;;5032491;28;20120;-72
2023/06/12 06:17:43;;;;;;;6.20;3.75;;;23.20;68.70;;;;;;5032221;28;20100;-72
2023/06/12 06:20:11;;;;;;;5.53;3.80;;;23.30;69.30;;;;;;5018585;28;20057;-73
2023/06/12 06:22:36;;;;;;;7.97;4.00;;;23.40;67.90;;;;;;5030413;28;20361;-73
2023/06/12 06:25:03;;;;;;;7.60;3.75;;;23.40;67.50;;;;;;5032250;28;20029;-72
2023/06/12 06:27:29;;;;;;;8.30;3.55;;;23.50;67.00;;;;;;5032037;28;20022;-72
2023/06/12 06:29:55;;;;;;;19.65;4.20;;;23.60;66.60;;;;;;5032195;28;20068;-73
2023/06/12 06:32:21;;;;;;;5.78;3.47;;;23.60;66.80;;;;;;5031594;28;20057;-72
2023/06/12 06:34:48;;;;;;;5.35;3.22;;;23.70;67.00;;;;;;5012835;28;20404;-73
2023/06/12 06:37:14;;;;;;;7.63;4.47;;;23.70;66.90;;;;;;5031833;28;20021;-72
2023/06/12 06:39:40;;;;;;;8.05;3.90;;;23.80;66.70;;;;;;5031598;28;20025;-72
2023/06/12 06:42:06;;;;;;;8.05;4.20;;;24.00;66.40;;;;;;5031821;28;20076;-72
2023/06/12 06:44:31;;;;;;;5.45;3.13;;;24.00;65.60;;;;;;5032000;28;20061;-72
2023/06/12 06:46:57;;;;;;;7.43;3.80;;;24.00;65.00;;;;;;5031239;28;20088;-72
2023/06/12 06:49:22;;;;;;;5.82;3.05;;;24.10;65.00;;;;;;5031606;28;20065;-73
2023/06/12 06:51:48;;;;;;;6.55;3.97;;;24.10;64.80;;;;;;5030183;28;20125;-72
2023/06/12 06:54:13;;;;;;;10.90;4.22;;;24.10;64.10;;;;;;5031583;28;20025;-72
2023/06/12 06:56:39;;;;;;;6.40;3.47;;;24.10;64.00;;;;;;5031080;28;20017;-72
2023/06/12 06:59:05;;;;;;;4.70;3.10;;;24.10;64.00;;;;;;5014279;28;20381;-72
2023/06/12 07:01:33;;;;;;;5.03;3.38;;;24.20;63.60;;;;;;5018024;28;20488;-72
2023/06/12 07:03:59;;;;;;;5.10;3.33;;;24.20;63.60;;;;;;5017912;28;20070;-72
2023/06/12 07:06:25;;;;;;;5.80;4.07;;;24.20;64.00;;;;;;5031558;28;20108;-72
2023/06/12 07:08:50;;;;;;;7.18;3.53;;;24.30;64.00;;;;;;5031579;28;20037;-72
2023/06/12 07:11:16;;;;;;;9.90;4.30;;;24.30;63.50;;;;;;5031238;28;20040;-72
2023/06/12 07:13:42;;;;;;;6.60;3.47;;;24.30;63.40;;;;;;5027284;28;20164;-72
2023/06/12 07:16:07;;;;;;;6.20;3.58;;;24.40;63.60;;;;;;5019137;28;20103;-72
2023/06/12 07:18:33;;;;;;;11.50;3.83;;;24.50;63.60;;;;;;5031035;28;20112;-72
2023/06/12 07:20:59;;;;;;;6.60;3.60;;;24.60;63.80;;;;;;5031281;28;20042;-73
2023/06/12 07:23:24;;;;;;;6.85;4.03;;;24.70;63.70;;;;;;5031077;28;20021;-72
2023/06/12 07:25:50;;;;;;;9.63;3.33;;;24.80;63.20;;;;;;5031208;28;20555;-72
2023/06/12 07:28:16;;;;;;;6.57;3.13;;;24.90;63.40;;;;;;5029947;28;20363;-73
2023/06/12 07:30:41;;;;;;;6.05;3.20;;;24.90;63.20;;;;;;5030796;28;20087;-72
2023/06/12 07:33:07;;;;;;;5.60;3.00;;;25.10;62.90;;;;;;5031408;28;20033;-72
2023/06/12 07:35:32;;;;;;;11.68;3.85;;;25.10;62.60;;;;;;5030726;28;20025;-72
2023/06/12 07:37:58;;;;;;;10.30;2.75;;;25.10;62.40;;;;;;5031481;28;20496;-72
2023/06/12 07:40:24;;;;;;;6.28;2.72;;;25.20;62.50;;;;;;5020001;28;20437;-72
2023/06/12 07:42:50;;;;;;;4.32;3.08;;;25.30;62.50;;;;;;5011749;28;20085;-73
2023/06/12 07:45:15;;;;;;;5.82;3.50;;;25.40;62.30;;;;;;5025976;28;20033;-71
2023/06/12 07:47:42;;;;;;;4.55;2.97;;;25.40;61.40;;;;;;5030563;28;20033;-70
2023/06/12 07:50:08;;;;;;;3.15;2.83;;;25.50;61.40;;;;;;5031510;28;20037;-71
2023/06/12 07:52:34;;;;;;;5.10;3.40;;;25.50;61.00;;;;;;5030503;28;20397;-71
2023/06/12 07:54:59;;;;;;;3.78;2.83;;;25.50;61.30;;;;;;5020533;28;20072;-71
2023/06/12 07:57:25;;;;;;;4.78;3.22;;;25.60;61.70;;;;;;5026728;28;20076;-71
2023/06/12 07:59:50;;;;;;;7.55;3.17;;;25.80;61.80;;;;;;5031057;28;20385;-71
2023/06/12 08:02:16;;;;;;;10.52;3.60;;;25.90;61.00;;;;;;5028963;28;20022;-71
2023/06/12 08:04:42;;;;;;;5.07;2.92;;;26.00;60.80;;;;;;5022917;28;20481;-71
2023/06/12 08:07:12;;;;;;;5.60;3.00;;;26.20;60.50;;;;;;5030910;28;20036;-71
2023/06/12 08:09:40;;;;;;;10.60;3.25;;;26.20;60.20;;;;;;5029453;28;20041;-71
2023/06/12 08:12:06;;;;;;;5.28;3.15;;;26.30;60.00;;;;;;5030970;28;20025;-71
2023/06/12 08:14:32;;;;;;;5.13;3.38;;;26.30;59.40;;;;;;5022775;28;20032;-71
2023/06/12 08:16:58;;;;;;;6.18;3.15;;;26.20;58.90;;;;;;5026227;28;20037;-71
2023/06/12 08:19:24;;;;;;;7.05;3.00;;;26.20;59.80;;;;;;5016377;28;20482;-72
2023/06/12 08:21:50;;;;;;;4.07;2.90;;;26.40;59.90;;;;;;5030264;28;20104;-72
2023/06/12 08:24:16;;;;;;;5.70;2.80;;;26.40;59.30;;;;;;5030637;28;20021;-72
2023/06/12 08:26:41;;;;;;;6.75;3.08;;;26.50;59.60;;;;;;5030920;28;20030;-72
2023/06/12 08:29:08;;;;;;;5.85;3.78;;;26.50;59.10;;;;;;5013145;28;20107;-72
2023/06/12 08:31:34;;;;;;;4.18;3.20;;;26.60;59.40;;;;;;5029234;28;20018;-72
2023/06/12 08:34:00;;;;;;;9.18;2.60;;;26.70;59.00;;;;;;5016272;28;20075;-72
2023/06/12 08:36:26;;;;;;;3.90;2.90;;;26.70;58.90;;;;;;5030313;28;20466;-72
2023/06/12 08:38:52;;;;;;;4.35;2.75;;;26.80;59.20;;;;;;5030820;28;20057;-72
2023/06/12 08:41:19;;;;;;;5.97;3.05;;;26.90;58.30;;;;;;5030476;28;20063;-72
2023/06/12 08:43:47;;;;;;;7.85;3.13;;;27.00;58.50;;;;;;5030986;28;20025;-72
2023/06/12 08:46:16;;;;;;;7.07;3.63;;;27.00;57.70;;;;;;5028619;28;20025;-72
2023/06/12 08:48:43;;;;;;;8.05;3.15;;;27.00;58.10;;;;;;5021692;28;20116;-72
2023/06/12 08:51:09;;;;;;;5.43;3.03;;;27.10;58.20;;;;;;5030863;28;20037;-72
2023/06/12 08:53:35;;;;;;;7.75;3.50;;;27.20;57.90;;;;;;5028252;28;20101;-72
2023/06/12 08:56:01;;;;;;;4.32;3.33;;;27.30;57.80;;;;;;5030044;28;20061;-72
2023/06/12 08:58:26;;;;;;;5.32;2.67;;;27.30;57.30;;;;;;5032669;28;20045;-72
2023/06/12 09:00:52;;;;;;;3.85;3.17;;;27.40;57.10;;;;;;5033764;28;20092;-72
2023/06/12 09:03:19;;;;;;;5.63;3.40;;;27.50;56.70;;;;;;5033107;28;20052;-72
2023/06/12 09:05:46;;;;;;;5.30;3.25;;;27.50;55.30;;;;;;5034057;28;20109;-72
2023/06/12 09:08:13;;;;;;;8.35;3.42;;;27.40;55.50;;;;;;5033467;28;20030;-72
2023/06/12 09:10:39;;;;;;;7.13;3.40;;;27.50;55.70;;;;;;5022527;28;20065;-72
2023/06/12 09:13:12;;;;;;;7.13;3.38;;;27.50;55.10;;;;;;5021156;28;20072;-72
2023/06/12 09:15:38;;;;;;;8.82;3.70;;;27.50;55.10;;;;;;5033731;28;20033;-72
2023/06/12 09:18:09;;;;;;;3.95;3.22;;;27.60;55.20;;;;;;5033484;28;20064;-72
2023/06/12 09:20:36;;;;;;;5.80;3.33;;;27.70;55.30;;;;;;5033226;28;20114;-72
2023/06/12 09:23:06;;;;;;;6.97;3.53;;;27.80;55.40;;;;;;5033631;28;20314;-72
2023/06/12 09:25:37;;;;;;;6.32;3.78;;;27.90;55.50;;;;;;5032652;28;20048;-71
2023/06/12 09:28:03;;;;;;;5.40;2.70;;;28.00;55.20;;;;;;5033363;28;20474;-71
2023/06/12 09:30:33;;;;;;;6.50;3.28;;;28.10;55.40;;;;;;5033089;28;20033;-72
2023/06/12 09:33:00;;;;;;;5.05;2.90;;;28.10;54.40;;;;;;5033375;28;20021;-72
2023/06/12 09:35:26;;;;;;;8.55;3.50;;;28.10;53.00;;;;;;5032908;28;20029;-72
2023/06/12 09:37:51;;;;;;;4.72;2.92;;;28.10;52.40;;;;;;5033019;28;20028;-72
2023/06/12 09:40:17;;;;;;;5.75;3.38;;;28.10;52.70;;;;;;5013322;28;20482;-72
2023/06/12 09:42:44;;;;;;;5.45;3.03;;;28.10;53.80;;;;;;5033160;28;20021;-72
2023/06/12 09:45:13;;;;;;;5.28;3.13;;;28.10;52.30;;;;;;5033223;28;20025;-72
2023/06/12 09:47:45;;;;;;;3.47;2.60;;;28.20;51.40;;;;;;5033130;28;20021;-72
2023/06/12 09:50:12;;;;;;;;;;;28.20;51.00;;;;;;5032995;28;20029;-72
2023/06/12 09:52:40;;;;;;;7.13;2.97;;;28.30;50.70;;;;;;5015487;28;19933;-72
2023/06/12 09:55:07;;;;;;;4.00;2.78;;;28.20;50.40;;;;;;5019971;28;20476;-72
2023/06/12 09:57:35;;;;;;;7.50;3.00;;;28.30;50.40;;;;;;5033073;28;20116;-72
2023/06/12 10:00:05;;;;;;;4.15;3.00;;;28.40;48.80;;;;;;5032869;28;20017;-72
2023/06/12 10:02:31;;;;;;;6.65;3.40;;;28.40;48.60;;;;;;5014133;28;20030;-72
2023/06/12 10:05:06;;;;;;;5.47;3.30;;;28.50;48.70;;;;;;5018795;28;20018;-72
2023/06/12 10:07:38;;;;;;;5.53;2.78;;;28.50;48.40;;;;;;5032089;28;20497;-72
2023/06/12 10:10:07;;;;;;;4.18;3.00;;;28.60;48.00;;;;;;5031970;28;20648;-72
2023/06/12 10:12:33;;;;;;;7.65;3.55;;;28.60;47.50;;;;;;5032196;28;20071;-72
2023/06/12 10:15:00;;;;;;;4.10;3.20;;;28.70;47.60;;;;;;5022274;28;20114;-72
2023/06/12 10:17:27;;;;;;;5.93;2.83;;;28.80;48.40;;;;;;5012629;28;20018;-72
2023/06/12 10:19:54;;;;;;;5.47;2.67;;;29.00;47.40;;;;;;5020970;28;20045;-72
2023/06/12 10:22:20;;;;;;;7.53;3.30;;;29.00;47.10;;;;;;5025685;28;20481;-72
2023/06/12 10:24:47;;;;;;;5.05;3.08;;;29.20;47.40;;;;;;5030012;28;20090;-72
2023/06/12 10:27:13;;;;;;;3.67;3.33;;;29.40;47.20;;;;;;5023972;28;20033;-73
2023/06/12 10:29:39;;;;;;;4.25;2.95;;;29.40;46.60;;;;;;5027893;28;20448;-72
2023/06/12 10:32:15;;;;;;;4.03;2.90;;;29.40;46.20;;;;;;5010189;28;20053;-72
2023/06/12 10:34:43;;;;;;;4.40;3.03;;;29.30;46.60;;;;;;5022935;28;20105;-72
2023/06/12 10:37:30;;;;;;;7.35;3.45;;;29.30;46.90;;;;;;5032345;28;20055;-72
2023/06/12 10:40:09;;;;;;;4.88;2.90;;;29.40;47.40;;;;;;5032493;28;20033;-72
2023/06/12 10:42:53;;;;;;;6.05;2.65;;;29.40;47.60;;;;;;5025861;28;20026;-73
2023/06/12 10:45:25;;;;;;;3.97;2.47;;;29.50;46.90;;;;;;5025692;28;20048;-73
2023/06/12 10:48:05;;;;;;;4.05;3.03;;;29.50;46.70;;;;;;5032052;28;20029;-73
2023/06/12 10:50:58;;;;;;;3.50;2.65;;;29.50;47.00;;;;;;5031294;28;20043;-73
2023/06/12 10:53:26;;;;;;;4.10;3.00;;;29.50;47.50;;;;;;5025188;28;20124;-73
2023/06/12 10:56:07;;;;;;;4.25;3.30;;;29.60;47.60;;;;;;5029749;28;20029;-73
2023/06/12 10:58:37;;;;;;;5.20;3.70;;;29.50;47.60;;;;;;5029509;28;20208;-72
2023/06/12 11:01:13;;;;;;;6.00;3.20;;;29.50;47.60;;;;;;5032035;28;20024;-73
2023/06/12 11:03:42;;;;;;;6.20;3.20;;;29.50;48.30;;;;;;5028998;28;20029;-73
2023/06/12 11:06:16;;;;;;;3.55;3.13;;;29.60;48.80;;;;;;5029068;28;20022;-73
2023/06/12 11:08:46;;;;;;;7.10;2.95;;;29.90;49.40;;;;;;5025146;28;20030;-73
2023/06/12 11:11:13;;;;;;;6.10;3.63;;;29.90;49.00;;;;;;5027025;28;20418;-73
2023/06/12 11:13:44;;;;;;;5.72;3.08;;;30.10;49.10;;;;;;5031428;28;20031;-73
2023/06/12 11:16:13;;;;;;;7.45;3.28;;;30.10;48.90;;;;;;5030954;28;20025;-73
2023/06/12 11:18:40;;;;;;;4.97;2.97;;;30.20;49.60;;;;;;5030024;28;20029;-73
2023/06/12 11:21:07;;;;;;;3.95;3.22;;;30.40;49.00;;;;;;5025930;28;20092;-73
2023/06/12 11:23:33;;;;;;;5.18;3.13;;;30.30;48.60;;;;;;5029755;28;20033;-73
2023/06/12 11:25:59;;;;;;;4.43;3.22;;;30.30;48.40;;;;;;5031390;28;20029;-73
2023/06/12 11:28:28;;;;;;;6.50;3.55;;;30.20;48.20;;;;;;5028026;28;20469;-73
2023/06/12 11:30:54;;;;;;;4.93;3.00;;;30.10;48.20;;;;;;5030008;28;20093;-73
2023/06/12 11:33:21;;;;;;;5.18;2.95;;;30.00;48.40;;;;;;5028440;28;20101;-73
2023/06/12 11:35:49;;;;;;;4.65;3.25;;;30.00;48.10;;;;;;5031858;28;20036;-72
2023/06/12 11:38:17;;;;;;;5.28;2.83;;;30.00;48.00;;;;;;5029387;28;20097;-72
2023/06/12 11:40:43;;;;;;;4.47;3.22;;;30.00;48.60;;;;;;5019739;28;20032;-72
2023/06/12 11:43:09;;;;;;;3.83;3.28;;;30.10;48.40;;;;;;5025489;28;20017;-72
2023/06/12 11:45:41;;;;;;;3.17;2.85;;;30.10;48.90;;;;;;5025569;28;20068;-72
2023/06/12 11:48:13;;;;;;;4.60;3.40;;;30.20;48.20;;;;;;5027288;28;20116;-73
2023/06/12 11:50:50;;;;;;;4.20;3.33;;;30.10;48.40;;;;;;5013388;28;20135;-74
2023/06/12 11:53:17;;;;;;;4.38;3.20;;;30.10;48.50;;;;;;5017024;28;20022;-73
2023/06/12 11:55:57;;;;;;;5.63;3.20;;;30.20;49.00;;;;;;5016470;28;20064;-72
2023/06/12 11:58:36;;;;;;;3.40;2.50;;;30.40;48.60;;;;;;5028909;28;20096;-71
2023/06/12 12:01:36;;;;;;;5.60;3.35;;;30.50;48.40;;;;;;5029299;28;20037;-72
2023/06/12 12:04:04;;;;;;;4.90;3.00;;;30.30;48.70;;;;;;5029434;28;20048;-74
2023/06/12 12:06:31;;;;;;;4.13;3.30;;;30.20;48.70;;;;;;5024749;28;20025;-71
2023/06/12 12:08:58;;;;;;;5.57;2.65;;;30.20;49.20;;;;;;5007492;28;20260;-72
2023/06/12 12:11:29;;;;;;;3.83;3.22;;;30.30;49.50;;;;;;5029638;28;20072;-72
2023/06/12 12:14:03;;;;;;;3.47;2.55;;;30.50;49.10;;;;;;5028916;28;20032;-72
2023/06/12 12:16:43;;;;;;;4.57;3.22;;;30.60;48.80;;;;;;5026449;28;20037;-72
2023/06/12 12:19:26;;;;;;;6.43;3.08;;;30.50;48.70;;;;;;5025125;28;20026;-72
2023/06/12 12:21:52;;;;;;;3.20;2.88;;;30.40;48.70;;;;;;5019415;28;20029;-72
2023/06/12 12:24:18;;;;;;;4.15;2.90;;;30.40;48.50;;;;;;5028405;28;20025;-72
2023/06/12 12:26:51;;;;;;;5.05;2.88;;;30.40;49.10;;;;;;5029306;28;20045;-72
2023/06/12 12:29:17;;;;;;;4.13;2.65;;;30.70;49.00;;;;;;5028772;28;20116;-73
2023/06/12 12:31:43;;;;;;;3.17;2.80;;;31.00;48.40;;;;;;5024757;28;20025;-72
2023/06/12 12:34:09;;;;;;;3.35;2.67;;;31.30;48.30;;;;;;5011927;28;20032;-71
2023/06/12 12:36:36;;;;;;;3.00;2.50;;;31.60;46.90;;;;;;5032861;28;20017;-72
2023/06/12 12:39:02;;;;;;;5.28;2.80;;;31.60;46.80;;;;;;5025782;28;20021;-71
2023/06/12 12:41:28;;;;;;;5.53;2.85;;;31.50;46.90;;;;;;5030232;28;20029;-71
2023/06/12 12:43:54;;;;;;;3.28;2.88;;;31.60;46.90;;;;;;5029454;28;20018;-71
2023/06/12 12:46:22;;;;;;;4.15;2.72;;;31.70;47.10;;;;;;5030489;28;20121;-72
2023/06/12 12:48:48;;;;;;;4.93;2.72;;;31.70;46.70;;;;;;5031575;28;20156;-72